sensor_id;sensor_type;location;lat;lon;timestamp;pressure;altitude;pressure_sealevel;temperature;humidity
9695;BME280;4690;52.422;13.486;2023-11-21T00:12:13;100562.84;;;10.64;99.87
9695;BME280;4690;52.422;13.486;2023-11-21T00:14:40;100568.56;;;10.62;99.95
9695;BME280;4690;52.422;13.486;2023-11-21T00:17:06;100566.81;;;10.49;100.00
9695;BME280;4690;52.422;13.486;2023-11-21T00:19:32;100578.69;;;10.43;100.00
9695;BME280;4690;52.422;13.486;2023-11-21T00:22:00;100579.59;;;10.19;100.00
9695;BME280;4690;52.422;13.486;2023-11-21T00:24:26;100583.50;;;10.11;100.00
9695;BME280;4690;52.422;13.486;2023-11-21T00:26:52;100585.28;;;9.99;100.00
9695;BME280;4690;52.422;13.486;2023-11-21T00:29:18;100580.88;;;9.98;100.00
9695;BME280;4690;52.422;13.486;2023-11-21T00:31:45;100586.88;;;9.88;100.00
9695;BME280;4690;52.422;13.486;2023-11-21T00:34:12;100581.84;;;9.85;100.00
9695;BME280;4690;52.422;13.486;2023-11-21T00:36:38;100587.03;;;9.75;100.00
9695;BME280;4690;52.422;13.486;2023-11-21T00:39:04;100602.28;;;9.64;100.00
9695;BME280;4690;52.422;13.486;2023-11-21T00:41:32;100605.94;;;9.51;100.00
9695;BME280;4690;52.422;13.486;2023-11-21T00:43:57;100604.84;;;9.34;100.00
9695;BME280;4690;52.422;13.486;2023-11-21T00:46:25;100608.13;;;9.42;100.00
9695;BME280;4690;52.422;13.486;2023-11-21T00:48:52;100613.00;;;9.40;100.00
9695;BME280;4690;52.422;13.486;2023-11-21T00:51:20;100609.34;;;9.22;100.00
9695;BME280;4690;52.422;13.486;2023-11-21T00:53:47;100619.59;;;9.01;100.00
9695;BME280;4690;52.422;13.486;2023-11-21T00:56:13;100612.88;;;8.97;100.00
9695;BME280;4690;52.422;13.486;2023-11-21T00:58:39;100617.13;;;8.93;100.00
9695;BME280;4690;52.422;13.486;2023-11-21T01:01:09;100631.88;;;8.85;100.00
9695;BME280;4690;52.422;13.486;2023-11-21T01:03:35;100629.38;;;8.77;100.00
9695;BME280;4690;52.422;13.486;2023-11-21T01:06:01;100627.72;;;8.76;100.00
9695;BME280;4690;52.422;13.486;2023-11-21T01:08:27;100628.75;;;8.75;100.00
9695;BME280;4690;52.422;13.486;2023-11-21T01:10:52;100636.75;;;8.77;100.00
9695;BME280;4690;52.422;13.486;2023-11-21T01:13:19;100640.50;;;8.82;100.00
9695;BME280;4690;52.422;13.486;2023-11-21T01:15:45;100641.53;;;8.81;100.00
9695;BME280;4690;52.422;13.486;2023-11-21T01:18:10;100650.81;;;8.80;100.00
9695;BME280;4690;52.422;13.486;2023-11-21T01:20:36;100647.88;;;8.82;100.00
9695;BME280;4690;52.422;13.486;2023-11-21T01:23:02;100657.28;;;8.86;100.00
9695;BME280;4690;52.422;13.486;2023-11-21T01:25:27;100649.91;;;8.93;100.00
9695;BME280;4690;52.422;13.486;2023-11-21T01:27:53;100655.59;;;8.91;100.00
9695;BME280;4690;52.422;13.486;2023-11-21T01:30:19;100650.75;;;8.87;100.00
9695;BME280;4690;52.422;13.486;2023-11-21T01:32:45;100653.41;;;8.62;100.00
9695;BME280;4690;52.422;13.486;2023-11-21T01:35:11;100662.69;;;8.54;100.00
9695;BME280;4690;52.422;13.486;2023-11-21T01:37:37;100660.78;;;8.55;100.00
9695;BME280;4690;52.422;13.486;2023-11-21T01:40:04;100658.09;;;8.35;100.00
9695;BME280;4690;52.422;13.486;2023-11-21T01:42:39;100669.00;;;8.35;100.00
9695;BME280;4690;52.422;13.486;2023-11-21T01:45:06;100671.56;;;8.23;100.00
9695;BME280;4690;52.422;13.486;2023-11-21T01:47:33;100677.69;;;8.12;100.00
9695;BME280;4690;52.422;13.486;2023-11-21T01:50:02;100668.03;;;8.09;100.00
9695;BME280;4690;52.422;13.486;2023-11-21T01:52:30;100675.16;;;8.03;100.00
9695;BME280;4690;52.422;13.486;2023-11-21T01:54:58;100674.13;;;7.98;100.00
9695;BME280;4690;52.422;13.486;2023-11-21T01:57:25;100679.59;;;7.84;100.00
9695;BME280;4690;52.422;13.486;2023-11-21T01:59:54;100682.09;;;7.93;100.00
9695;BME280;4690;52.422;13.486;2023-11-21T02:02:20;100681.47;;;7.91;100.00
9695;BME280;4690;52.422;13.486;2023-11-21T02:04:46;100687.97;;;7.96;100.00
9695;BME280;4690;52.422;13.486;2023-11-21T02:07:12;100699.31;;;8.00;100.00
9695;BME280;4690;52.422;13.486;2023-11-21T02:09:38;100694.25;;;7.77;100.00
9695;BME280;4690;52.422;13.486;2023-11-21T02:12:04;100698.03;;;7.62;100.00
9695;BME280;4690;52.422;13.486;2023-11-21T02:14:30;100701.81;;;7.55;100.00
9695;BME280;4690;52.422;13.486;2023-11-21T02:16:57;100701.56;;;7.36;100.00
9695;BME280;4690;52.422;13.486;2023-11-21T02:19:23;100701.81;;;7.35;100.00
9695;BME280;4690;52.422;13.486;2023-11-21T02:21:52;100713.75;;;7.40;100.00
9695;BME280;4690;52.422;13.486;2023-11-21T02:24:22;100708.28;;;7.27;100.00
9695;BME280;4690;52.422;13.486;2023-11-21T02:26:49;100712.66;;;7.22;100.00
9695;BME280;4690;52.422;13.486;2023-11-21T02:29:19;100712.44;;;7.10;100.00
9695;BME280;4690;52.422;13.486;2023-11-21T02:31:50;100720.38;;;7.05;100.00
9695;BME280;4690;52.422;13.486;2023-11-21T02:34:17;100722.47;;;7.09;100.00
9695;BME280;4690;52.422;13.486;2023-11-21T02:36:44;100725.41;;;7.08;100.00
9695;BME280;4690;52.422;13.486;2023-11-21T02:39:10;100732.13;;;7.12;100.00
9695;BME280;4690;52.422;13.486;2023-11-21T02:41:37;100728.97;;;7.15;100.00
9695;BME280;4690;52.422;13.486;2023-11-21T02:44:08;100726.25;;;7.15;100.00
9695;BME280;4690;52.422;13.486;2023-11-21T02:46:35;100723.75;;;7.07;100.00
9695;BME280;4690;52.422;13.486;2023-11-21T02:49:05;100727.66;;;6.91;100.00
9695;BME280;4690;52.422;13.486;2023-11-21T02:51:36;100731.63;;;6.88;100.00
9695;BME280;4690;52.422;13.486;2023-11-21T02:54:03;100741.63;;;6.81;100.00
9695;BME280;4690;52.422;13.486;2023-11-21T02:56:32;100739.56;;;6.83;100.00
9695;BME280;4690;52.422;13.486;2023-11-21T02:59:00;100743.50;;;6.81;100.00
9695;BME280;4690;52.422;13.486;2023-11-21T03:01:26;100737.03;;;6.82;100.00
9695;BME280;4690;52.422;13.486;2023-11-21T03:03:53;100743.50;;;6.81;100.00
9695;BME280;4690;52.422;13.486;2023-11-21T03:06:21;100735.41;;;6.94;100.00
9695;BME280;4690;52.422;13.486;2023-11-21T03:08:47;100750.34;;;7.05;100.00
9695;BME280;4690;52.422;13.486;2023-11-21T03:11:14;100744.47;;;7.08;100.00
9695;BME280;4690;52.422;13.486;2023-11-21T03:13:41;100742.81;;;7.13;100.00
9695;BME280;4690;52.422;13.486;2023-11-21T03:16:10;100745.75;;;7.12;100.00
9695;BME280;4690;52.422;13.486;2023-11-21T03:18:38;100747.44;;;7.13;100.00
9695;BME280;4690;52.422;13.486;2023-11-21T03:21:05;100752.25;;;7.11;100.00
9695;BME280;4690;52.422;13.486;2023-11-21T03:23:31;100751.56;;;6.95;100.00
9695;BME280;4690;52.422;13.486;2023-11-21T03:25:57;100759.94;;;7.01;100.00
9695;BME280;4690;52.422;13.486;2023-11-21T03:28:23;100759.34;;;7.05;100.00
9695;BME280;4690;52.422;13.486;2023-11-21T03:30:49;100775.03;;;6.96;100.00
9695;BME280;4690;52.422;13.486;2023-11-21T03:33:15;100765.00;;;7.04;100.00
9695;BME280;4690;52.422;13.486;2023-11-21T03:35:41;100767.53;;;7.12;100.00
9695;BME280;4690;52.422;13.486;2023-11-21T03:38:09;100771.97;;;7.13;100.00
9695;BME280;4690;52.422;13.486;2023-11-21T03:40:35;100777.59;;;7.11;100.00
9695;BME280;4690;52.422;13.486;2023-11-21T03:43:01;100781.38;;;7.10;100.00
9695;BME280;4690;52.422;13.486;2023-11-21T03:45:26;100780.06;;;7.00;100.00
9695;BME280;4690;52.422;13.486;2023-11-21T03:47:52;100774.63;;;7.06;100.00
9695;BME280;4690;52.422;13.486;2023-11-21T03:50:18;100784.22;;;6.89;100.00
9695;BME280;4690;52.422;13.486;2023-11-21T03:52:44;100788.00;;;6.94;100.00
9695;BME280;4690;52.422;13.486;2023-11-21T03:55:10;100789.41;;;6.84;100.00
9695;BME280;4690;52.422;13.486;2023-11-21T03:57:38;100794.69;;;6.92;100.00
9695;BME280;4690;52.422;13.486;2023-11-21T04:00:05;100798.25;;;6.92;100.00
9695;BME280;4690;52.422;13.486;2023-11-21T04:02:34;100803.09;;;6.97;100.00
9695;BME280;4690;52.422;13.486;2023-11-21T04:05:00;100803.09;;;6.97;100.00
9695;BME280;4690;52.422;13.486;2023-11-21T04:07:26;100801.44;;;6.96;100.00
9695;BME280;4690;52.422;13.486;2023-11-21T04:09:52;100803.84;;;6.78;100.00
9695;BME280;4690;52.422;13.486;2023-11-21T04:12:19;100807.06;;;6.88;100.00
9695;BME280;4690;52.422;13.486;2023-11-21T04:14:45;100810.03;;;7.00;100.00
9695;BME280;4690;52.422;13.486;2023-11-21T04:17:11;100814.16;;;6.89;100.00
9695;BME280;4690;52.422;13.486;2023-11-21T04:19:36;100811.03;;;6.92;100.00
9695;BME280;4690;52.422;13.486;2023-11-21T04:22:02;100809.72;;;6.81;100.00
9695;BME280;4690;52.422;13.486;2023-11-21T04:24:28;100811.59;;;6.81;100.00
9695;BME280;4690;52.422;13.486;2023-11-21T04:26:54;100817.97;;;6.94;100.00
9695;BME280;4690;52.422;13.486;2023-11-21T04:29:19;100825.13;;;6.95;100.00
9695;BME280;4690;52.422;13.486;2023-11-21T04:31:45;100835.44;;;7.07;100.00
9695;BME280;4690;52.422;13.486;2023-11-21T04:34:11;100832.09;;;7.05;99.68
9695;BME280;4690;52.422;13.486;2023-11-21T04:36:39;100832.03;;;6.98;99.64
9695;BME280;4690;52.422;13.486;2023-11-21T04:39:05;100846.03;;;6.88;98.53
9695;BME280;4690;52.422;13.486;2023-11-21T04:41:32;100841.03;;;6.64;98.50
9695;BME280;4690;52.422;13.486;2023-11-21T04:43:58;100853.47;;;6.73;99.44
9695;BME280;4690;52.422;13.486;2023-11-21T04:46:26;100841.94;;;6.71;97.92
9695;BME280;4690;52.422;13.486;2023-11-21T04:48:52;100849.00;;;6.65;98.51
9695;BME280;4690;52.422;13.486;2023-11-21T04:51:18;100853.13;;;6.55;97.84
9695;BME280;4690;52.422;13.486;2023-11-21T04:53:43;100853.66;;;6.43;98.73
9695;BME280;4690;52.422;13.486;2023-11-21T04:56:09;100857.28;;;6.50;99.07
9695;BME280;4690;52.422;13.486;2023-11-21T04:58:35;100859.75;;;6.45;98.83
9695;BME280;4690;52.422;13.486;2023-11-21T05:01:01;100859.66;;;6.60;98.82
9695;BME280;4690;52.422;13.486;2023-11-21T05:03:27;100861.78;;;6.65;98.56
9695;BME280;4690;52.422;13.486;2023-11-21T05:05:55;100864.91;;;6.62;98.83
9695;BME280;4690;52.422;13.486;2023-11-21T05:08:21;100865.06;;;6.54;97.93
9695;BME280;4690;52.422;13.486;2023-11-21T05:10:48;100874.50;;;6.58;98.39
9695;BME280;4690;52.422;13.486;2023-11-21T05:13:14;100880.66;;;6.66;98.44
9695;BME280;4690;52.422;13.486;2023-11-21T05:15:43;100888.28;;;6.78;98.10
9695;BME280;4690;52.422;13.486;2023-11-21T05:18:09;100883.19;;;6.68;98.16
9695;BME280;4690;52.422;13.486;2023-11-21T05:20:36;100883.88;;;6.77;98.22
9695;BME280;4690;52.422;13.486;2023-11-21T05:23:02;100896.25;;;6.79;97.98
9695;BME280;4690;52.422;13.486;2023-11-21T05:25:28;100897.22;;;6.71;97.74
9695;BME280;4690;52.422;13.486;2023-11-21T05:27:54;100899.38;;;6.76;97.67
9695;BME280;4690;52.422;13.486;2023-11-21T05:30:24;100896.53;;;6.91;97.82
9695;BME280;4690;52.422;13.486;2023-11-21T05:32:50;100900.75;;;6.93;97.57
9695;BME280;4690;52.422;13.486;2023-11-21T05:35:16;100904.22;;;6.81;97.27
9695;BME280;4690;52.422;13.486;2023-11-21T05:37:42;100909.25;;;6.84;97.56
9695;BME280;4690;52.422;13.486;2023-11-21T05:40:09;100901.56;;;6.87;97.72
9695;BME280;4690;52.422;13.486;2023-11-21T05:42:36;100909.38;;;6.69;96.75
9695;BME280;4690;52.422;13.486;2023-11-21T05:45:04;100912.31;;;6.67;97.26
9695;BME280;4690;52.422;13.486;2023-11-21T05:47:41;100913.97;;;6.68;97.11
9695;BME280;4690;52.422;13.486;2023-11-21T05:50:14;100912.47;;;6.66;97.47
9695;BME280;4690;52.422;13.486;2023-11-21T05:52:43;100919.16;;;6.63;97.51
9695;BME280;4690;52.422;13.486;2023-11-21T05:55:09;100921.34;;;6.74;97.55
9695;BME280;4690;52.422;13.486;2023-11-21T05:57:39;100929.47;;;6.68;97.59
9695;BME280;4690;52.422;13.486;2023-11-21T06:00:23;100932.63;;;6.71;97.23
9695;BME280;4690;52.422;13.486;2023-11-21T06:02:52;100939.97;;;6.71;97.50
9695;BME280;4690;52.422;13.486;2023-11-21T06:05:21;100937.09;;;6.79;97.66
9695;BME280;4690;52.422;13.486;2023-11-21T06:07:50;100935.41;;;6.78;97.47
9695;BME280;4690;52.422;13.486;2023-11-21T06:10:16;100935.06;;;6.88;97.16
9695;BME280;4690;52.422;13.486;2023-11-21T06:12:43;100958.25;;;6.77;96.96
9695;BME280;4690;52.422;13.486;2023-11-21T06:15:10;100952.22;;;6.82;96.86
9695;BME280;4690;52.422;13.486;2023-11-21T06:17:40;100961.25;;;6.89;96.85
9695;BME280;4690;52.422;13.486;2023-11-21T06:20:09;100971.16;;;6.90;96.40
9695;BME280;4690;52.422;13.486;2023-11-21T06:22:39;100968.22;;;6.91;96.00
9695;BME280;4690;52.422;13.486;2023-11-21T06:25:06;100971.16;;;6.90;96.19
9695;BME280;4690;52.422;13.486;2023-11-21T06:27:34;100967.75;;;6.88;96.23
9695;BME280;4690;52.422;13.486;2023-11-21T06:30:02;100977.03;;;6.93;96.39
9695;BME280;4690;52.422;13.486;2023-11-21T06:32:28;100980.41;;;6.95;95.98
9695;BME280;4690;52.422;13.486;2023-11-21T06:34:56;100982.53;;;7.00;95.89
9695;BME280;4690;52.422;13.486;2023-11-21T06:37:26;100989.41;;;6.96;95.81
9695;BME280;4690;52.422;13.486;2023-11-21T06:39:53;101002.22;;;6.74;95.39
9695;BME280;4690;52.422;13.486;2023-11-21T06:42:19;101000.28;;;6.68;95.76
9695;BME280;4690;52.422;13.486;2023-11-21T06:44:46;101004.94;;;6.74;96.60
9695;BME280;4690;52.422;13.486;2023-11-21T06:47:12;101002.91;;;6.61;96.15
9695;BME280;4690;52.422;13.486;2023-11-21T06:49:38;101007.97;;;6.64;96.10
9695;BME280;4690;52.422;13.486;2023-11-21T06:52:04;101006.63;;;6.54;95.62
9695;BME280;4690;52.422;13.486;2023-11-21T06:54:33;101005.84;;;6.60;96.23
9695;BME280;4690;52.422;13.486;2023-11-21T06:57:00;101010.97;;;6.48;96.33
9695;BME280;4690;52.422;13.486;2023-11-21T06:59:29;101015.69;;;6.39;96.83
9695;BME280;4690;52.422;13.486;2023-11-21T07:01:54;101021.88;;;6.33;96.88
9695;BME280;4690;52.422;13.486;2023-11-21T07:04:20;101018.53;;;6.31;96.40
9695;BME280;4690;52.422;13.486;2023-11-21T07:06:46;101025.59;;;6.25;96.43
9695;BME280;4690;52.422;13.486;2023-11-21T07:09:12;101027.00;;;6.21;97.01
9695;BME280;4690;52.422;13.486;2023-11-21T07:11:38;101026.94;;;6.15;96.90
9695;BME280;4690;52.422;13.486;2023-11-21T07:14:04;101031.63;;;6.06;97.45
9695;BME280;4690;52.422;13.486;2023-11-21T07:16:37;101026.59;;;6.24;97.34
9695;BME280;4690;52.422;13.486;2023-11-21T07:19:09;101029.16;;;6.26;96.97
9695;BME280;4690;52.422;13.486;2023-11-21T07:21:36;101033.53;;;6.27;96.84
9695;BME280;4690;52.422;13.486;2023-11-21T07:24:03;101031.59;;;6.21;97.09
9695;BME280;4690;52.422;13.486;2023-11-21T07:26:30;101035.50;;;6.33;96.84
9695;BME280;4690;52.422;13.486;2023-11-21T07:28:56;101040.03;;;6.26;96.38
9695;BME280;4690;52.422;13.486;2023-11-21T07:31:23;101044.66;;;6.25;96.50
9695;BME280;4690;52.422;13.486;2023-11-21T07:33:50;101048.09;;;6.34;96.45
9695;BME280;4690;52.422;13.486;2023-11-21T07:36:17;101046.31;;;6.26;95.86
9695;BME280;4690;52.422;13.486;2023-11-21T07:38:49;101050.75;;;6.13;96.47
9695;BME280;4690;52.422;13.486;2023-11-21T07:41:15;101049.16;;;6.18;97.33
9695;BME280;4690;52.422;13.486;2023-11-21T07:43:42;101058.63;;;6.22;96.71
9695;BME280;4690;52.422;13.486;2023-11-21T07:46:08;101050.75;;;6.13;96.57
9695;BME280;4690;52.422;13.486;2023-11-21T07:48:34;101059.84;;;6.05;96.83
9695;BME280;4690;52.422;13.486;2023-11-21T07:51:02;101058.63;;;6.07;96.76
9695;BME280;4690;52.422;13.486;2023-11-21T07:53:32;101064.94;;;5.93;96.87
9695;BME280;4690;52.422;13.486;2023-11-21T07:56:06;101063.06;;;6.09;96.96
9695;BME280;4690;52.422;13.486;2023-11-21T07:58:36;101073.56;;;5.97;96.04
9695;BME280;4690;52.422;13.486;2023-11-21T08:01:03;101076.47;;;5.95;96.44
9695;BME280;4690;52.422;13.486;2023-11-21T08:03:30;101074.56;;;5.81;95.21
9695;BME280;4690;52.422;13.486;2023-11-21T08:05:57;101079.44;;;5.56;96.25
9695;BME280;4690;52.422;13.486;2023-11-21T08:08:24;101079.25;;;5.72;97.07
9695;BME280;4690;52.422;13.486;2023-11-21T08:10:50;101074.66;;;5.58;96.37
9695;BME280;4690;52.422;13.486;2023-11-21T08:13:26;101089.84;;;5.67;96.18
9695;BME280;4690;52.422;13.486;2023-11-21T08:15:59;101102.53;;;5.75;96.16
9695;BME280;4690;52.422;13.486;2023-11-21T08:18:28;101099.13;;;5.73;96.83
9695;BME280;4690;52.422;13.486;2023-11-21T08:20:57;101101.28;;;5.62;95.30
9695;BME280;4690;52.422;13.486;2023-11-21T08:23:23;101109.63;;;5.61;95.74
9695;BME280;4690;52.422;13.486;2023-11-21T08:25:53;101101.44;;;5.46;96.54
9695;BME280;4690;52.422;13.486;2023-11-21T08:28:19;101107.38;;;5.50;96.30
9695;BME280;4690;52.422;13.486;2023-11-21T08:30:48;101113.56;;;5.58;95.14
9695;BME280;4690;52.422;13.486;2023-11-21T08:33:14;101106.78;;;5.54;95.67
9695;BME280;4690;52.422;13.486;2023-11-21T08:35:40;101108.56;;;5.47;95.33
9695;BME280;4690;52.422;13.486;2023-11-21T08:38:06;101111.84;;;5.43;96.26
9695;BME280;4690;52.422;13.486;2023-11-21T08:40:31;101115.50;;;5.50;96.12
9695;BME280;4690;52.422;13.486;2023-11-21T08:42:58;101113.25;;;5.53;95.10
9695;BME280;4690;52.422;13.486;2023-11-21T08:45:30;101118.78;;;5.45;96.69
9695;BME280;4690;52.422;13.486;2023-11-21T08:47:56;101117.59;;;5.62;95.88
9695;BME280;4690;52.422;13.486;2023-11-21T08:50:22;101120.00;;;5.57;96.42
9695;BME280;4690;52.422;13.486;2023-11-21T08:52:48;101128.66;;;5.61;96.91
9695;BME280;4690;52.422;13.486;2023-11-21T08:55:14;101133.28;;;5.75;95.09
9695;BME280;4690;52.422;13.486;2023-11-21T08:57:43;101123.59;;;5.58;95.74
9695;BME280;4690;52.422;13.486;2023-11-21T09:00:10;101135.81;;;5.39;95.30
9695;BME280;4690;52.422;13.486;2023-11-21T09:02:41;101140.28;;;5.55;96.29
9695;BME280;4690;52.422;13.486;2023-11-21T09:05:12;101143.34;;;5.52;95.04
9695;BME280;4690;52.422;13.486;2023-11-21T09:07:40;101145.19;;;5.36;95.96
9695;BME280;4690;52.422;13.486;2023-11-21T09:10:08;101154.41;;;5.50;96.72
9695;BME280;4690;52.422;13.486;2023-11-21T09:12:36;101153.16;;;5.76;96.18
9695;BME280;4690;52.422;13.486;2023-11-21T09:15:06;101157.25;;;5.95;96.14
9695;BME280;4690;52.422;13.486;2023-11-21T09:17:33;101168.66;;;6.05;95.48
9695;BME280;4690;52.422;13.486;2023-11-21T09:19:59;101172.34;;;5.97;95.26
9695;BME280;4690;52.422;13.486;2023-11-21T09:22:25;101178.38;;;5.84;93.38
9695;BME280;4690;52.422;13.486;2023-11-21T09:24:51;101177.28;;;5.56;94.06
9695;BME280;4690;52.422;13.486;2023-11-21T09:27:18;101187.81;;;5.74;95.15
9695;BME280;4690;52.422;13.486;2023-11-21T09:29:44;101185.69;;;5.84;94.43
9695;BME280;4690;52.422;13.486;2023-11-21T09:32:09;101188.56;;;5.68;93.27
9695;BME280;4690;52.422;13.486;2023-11-21T09:34:38;101186.53;;;5.70;95.00
9695;BME280;4690;52.422;13.486;2023-11-21T09:37:07;101192.41;;;5.58;94.22
9695;BME280;4690;52.422;13.486;2023-11-21T09:39:34;101197.94;;;5.65;94.12
9695;BME280;4690;52.422;13.486;2023-11-21T09:42:17;101194.69;;;5.70;94.13
9695;BME280;4690;52.422;13.486;2023-11-21T09:44:58;101199.66;;;5.81;94.37
9695;BME280;4690;52.422;13.486;2023-11-21T09:47:29;101201.72;;;5.79;94.72
9695;BME280;4690;52.422;13.486;2023-11-21T09:50:00;101199.94;;;5.94;94.59
9695;BME280;4690;52.422;13.486;2023-11-21T09:52:28;101192.16;;;6.06;94.86
9695;BME280;4690;52.422;13.486;2023-11-21T09:54:55;101206.66;;;5.98;92.86
9695;BME280;4690;52.422;13.486;2023-11-21T09:57:24;101206.97;;;6.03;93.84
9695;BME280;4690;52.422;13.486;2023-11-21T09:59:55;101214.00;;;6.13;94.17
9695;BME280;4690;52.422;13.486;2023-11-21T10:02:29;101214.28;;;6.18;93.34
9695;BME280;4690;52.422;13.486;2023-11-21T10:04:56;101222.88;;;5.92;92.70
9695;BME280;4690;52.422;13.486;2023-11-21T10:07:23;101216.38;;;5.93;93.65
9695;BME280;4690;52.422;13.486;2023-11-21T10:09:51;101227.16;;;5.86;93.40
9695;BME280;4690;52.422;13.486;2023-11-21T10:12:18;101223.06;;;5.67;92.39
9695;BME280;4690;52.422;13.486;2023-11-21T10:14:48;101221.19;;;5.68;93.85
9695;BME280;4690;52.422;13.486;2023-11-21T10:17:15;101223.75;;;5.69;92.43
9695;BME280;4690;52.422;13.486;2023-11-21T10:19:47;101224.50;;;5.78;93.81
9695;BME280;4690;52.422;13.486;2023-11-21T10:22:15;101222.69;;;5.93;92.97
9695;BME280;4690;52.422;13.486;2023-11-21T10:24:41;101220.84;;;5.85;93.64
9695;BME280;4690;52.422;13.486;2023-11-21T10:27:09;101218.78;;;5.73;93.83
9695;BME280;4690;52.422;13.486;2023-11-21T10:29:35;101234.19;;;5.57;92.77
9695;BME280;4690;52.422;13.486;2023-11-21T10:32:02;101235.34;;;5.40;92.61
9695;BME280;4690;52.422;13.486;2023-11-21T10:34:29;101233.66;;;5.16;93.23
9695;BME280;4690;52.422;13.486;2023-11-21T10:36:55;101238.44;;;5.06;94.82
9695;BME280;4690;52.422;13.486;2023-11-21T10:39:24;101226.22;;;5.10;94.34
9695;BME280;4690;52.422;13.486;2023-11-21T10:41:54;101245.34;;;5.16;95.79
9695;BME280;4690;52.422;13.486;2023-11-21T10:44:20;101241.84;;;5.08;94.55
9695;BME280;4690;52.422;13.486;2023-11-21T10:46:55;101245.41;;;5.08;95.11
9695;BME280;4690;52.422;13.486;2023-11-21T10:49:25;101250.47;;;5.11;95.04
9695;BME280;4690;52.422;13.486;2023-11-21T10:51:52;101253.97;;;5.20;95.36
9695;BME280;4690;52.422;13.486;2023-11-21T10:54:24;101256.34;;;5.23;95.30
9695;BME280;4690;52.422;13.486;2023-11-21T10:57:00;101262.34;;;5.42;92.83
9695;BME280;4690;52.422;13.486;2023-11-21T10:59:31;101245.78;;;5.51;92.49
9695;BME280;4690;52.422;13.486;2023-11-21T11:02:40;101253.56;;;5.54;91.71
9695;BME280;4690;52.422;13.486;2023-11-21T11:05:00;101249.22;;;5.45;92.71
9695;BME280;4690;52.422;13.486;2023-11-21T11:07:27;101248.94;;;5.40;92.05
9695;BME280;4690;52.422;13.486;2023-11-21T11:09:59;101262.47;;;5.48;92.69
9695;BME280;4690;52.422;13.486;2023-11-21T11:12:25;101268.50;;;5.58;92.85
9695;BME280;4690;52.422;13.486;2023-11-21T11:14:51;101256.25;;;5.62;91.91
9695;BME280;4690;52.422;13.486;2023-11-21T11:17:19;101272.19;;;5.66;91.08
9695;BME280;4690;52.422;13.486;2023-11-21T11:19:48;101272.13;;;5.74;91.15
9695;BME280;4690;52.422;13.486;2023-11-21T11:28:18;101271.47;;;5.72;90.37
9695;BME280;4690;52.422;13.486;2023-11-21T11:31:14;101286.03;;;5.56;89.13
9695;BME280;4690;52.422;13.486;2023-11-21T11:33:56;101281.44;;;5.56;90.28
9695;BME280;4690;52.422;13.486;2023-11-21T11:36:35;101291.63;;;5.54;90.02
9695;BME280;4690;52.422;13.486;2023-11-21T11:39:04;101291.94;;;5.36;89.97
9695;BME280;4690;52.422;13.486;2023-11-21T11:41:50;101304.38;;;5.31;90.18
9695;BME280;4690;52.422;13.486;2023-11-21T11:47:23;101305.81;;;5.19;91.36
9695;BME280;4690;52.422;13.486;2023-11-21T11:50:08;101320.59;;;5.16;91.25
9695;BME280;4690;52.422;13.486;2023-11-21T11:55:17;101313.22;;;5.25;90.51
9695;BME280;4690;52.422;13.486;2023-11-21T11:57:54;101329.06;;;5.21;90.53
9695;BME280;4690;52.422;13.486;2023-11-21T12:02:56;101320.31;;;5.34;90.42
9695;BME280;4690;52.422;13.486;2023-11-21T12:05:27;101330.41;;;5.48;90.69
9695;BME280;4690;52.422;13.486;2023-11-21T12:07:57;101338.16;;;5.59;89.63
9695;BME280;4690;52.422;13.486;2023-11-21T12:10:33;101349.03;;;5.59;89.51
9695;BME280;4690;52.422;13.486;2023-11-21T12:13:02;101357.03;;;5.61;88.08
9695;BME280;4690;52.422;13.486;2023-11-21T12:15:28;101344.59;;;5.67;88.38
9695;BME280;4690;52.422;13.486;2023-11-21T12:17:56;101350.97;;;5.74;87.45
9695;BME280;4690;52.422;13.486;2023-11-21T12:20:24;101362.59;;;5.68;87.81
9695;BME280;4690;52.422;13.486;2023-11-21T12:22:52;101364.03;;;5.55;87.30
9695;BME280;4690;52.422;13.486;2023-11-21T12:25:21;101362.63;;;5.59;86.64
9695;BME280;4690;52.422;13.486;2023-11-21T12:27:52;101365.72;;;5.56;86.06
9695;BME280;4690;52.422;13.486;2023-11-21T12:30:21;101364.06;;;5.47;86.05
9695;BME280;4690;52.422;13.486;2023-11-21T12:32:52;101370.50;;;5.46;86.46
9695;BME280;4690;52.422;13.486;2023-11-21T12:35:24;101381.66;;;5.59;86.22
9695;BME280;4690;52.422;13.486;2023-11-21T12:37:52;101385.81;;;5.47;85.78
9695;BME280;4690;52.422;13.486;2023-11-21T12:40:19;101394.41;;;5.59;86.83
9695;BME280;4690;52.422;13.486;2023-11-21T12:42:47;101386.63;;;5.56;86.30
9695;BME280;4690;52.422;13.486;2023-11-21T12:47:50;101390.63;;;5.68;86.25
9695;BME280;4690;52.422;13.486;2023-11-21T12:50:31;101390.13;;;5.65;86.36
9695;BME280;4690;52.422;13.486;2023-11-21T12:53:05;101391.41;;;5.46;87.44
9695;BME280;4690;52.422;13.486;2023-11-21T12:55:35;101391.06;;;5.49;87.92
9695;BME280;4690;52.422;13.486;2023-11-21T12:58:08;101384.97;;;5.47;89.34
9695;BME280;4690;52.422;13.486;2023-11-21T13:00:42;101388.59;;;5.31;89.37
9695;BME280;4690;52.422;13.486;2023-11-21T13:03:11;101391.09;;;5.40;90.17
9695;BME280;4690;52.422;13.486;2023-11-21T13:05:40;101389.09;;;5.34;91.46
9695;BME280;4690;52.422;13.486;2023-11-21T13:08:12;101399.97;;;5.34;91.72
9695;BME280;4690;52.422;13.486;2023-11-21T13:10:41;101403.31;;;5.45;91.71
9695;BME280;4690;52.422;13.486;2023-11-21T13:13:11;101411.16;;;5.39;92.20
9695;BME280;4690;52.422;13.486;2023-11-21T13:16:02;101416.09;;;5.36;93.00
9695;BME280;4690;52.422;13.486;2023-11-21T13:18:31;101428.34;;;5.32;92.61
9695;BME280;4690;52.422;13.486;2023-11-21T13:21:01;101426.31;;;5.26;92.41
9695;BME280;4690;52.422;13.486;2023-11-21T13:23:34;101418.78;;;5.44;92.92
9695;BME280;4690;52.422;13.486;2023-11-21T13:26:01;101430.59;;;5.20;92.08
9695;BME280;4690;52.422;13.486;2023-11-21T13:28:29;101423.59;;;5.26;92.48
9695;BME280;4690;52.422;13.486;2023-11-21T13:31:03;101429.09;;;5.09;92.25
9695;BME280;4690;52.422;13.486;2023-11-21T13:33:36;101431.25;;;5.22;92.32
9695;BME280;4690;52.422;13.486;2023-11-21T13:36:05;101439.38;;;5.38;92.34
9695;BME280;4690;52.422;13.486;2023-11-21T13:38:33;101442.03;;;5.55;91.43
9695;BME280;4690;52.422;13.486;2023-11-21T13:41:01;101442.66;;;5.17;91.14